sensor_id;sensor_type;location;lat;lon;timestamp;P1;durP1;ratioP1;P2;durP2;ratioP2
20565;SDS011;10441;50.884;12.064;2023-03-14T00:00:31;1.30;;;1.17;;
20565;SDS011;10441;50.884;12.064;2023-03-14T00:02:58;2.70;;;1.10;;
20565;SDS011;10441;50.884;12.064;2023-03-14T00:05:27;2.80;;;1.40;;
20565;SDS011;10441;50.884;12.064;2023-03-14T00:07:54;1.90;;;1.30;;
20565;SDS011;10441;50.884;12.064;2023-03-14T00:10:22;2.27;;;1.50;;
20565;SDS011;10441;50.884;12.064;2023-03-14T00:12:49;1.70;;;1.23;;
20565;SDS011;10441;50.884;12.064;2023-03-14T00:15:16;2.07;;;1.30;;
20565;SDS011;10441;50.884;12.064;2023-03-14T00:17:43;2.13;;;1.10;;
20565;SDS011;10441;50.884;12.064;2023-03-14T00:20:11;1.87;;;1.10;;
20565;SDS011;10441;50.884;12.064;2023-03-14T00:22:40;1.50;;;1.20;;
20565;SDS011;10441;50.884;12.064;2023-03-14T00:25:08;1.30;;;1.17;;
20565;SDS011;10441;50.884;12.064;2023-03-14T00:27:37;0.90;;;0.90;;
20565;SDS011;10441;50.884;12.064;2023-03-14T00:30:05;4.83;;;0.83;;
20565;SDS011;10441;50.884;12.064;2023-03-14T00:32:34;1.30;;;0.90;;
20565;SDS011;10441;50.884;12.064;2023-03-14T00:35:01;0.70;;;0.70;;
20565;SDS011;10441;50.884;12.064;2023-03-14T00:37:28;0.83;;;0.73;;
20565;SDS011;10441;50.884;12.064;2023-03-14T00:39:56;1.33;;;0.80;;
20565;SDS011;10441;50.884;12.064;2023-03-14T00:42:24;1.43;;;0.90;;
20565;SDS011;10441;50.884;12.064;2023-03-14T00:44:51;0.70;;;0.70;;
20565;SDS011;10441;50.884;12.064;2023-03-14T00:47:18;0.70;;;0.70;;
20565;SDS011;10441;50.884;12.064;2023-03-14T00:49:45;1.00;;;0.77;;
20565;SDS011;10441;50.884;12.064;2023-03-14T00:52:12;1.63;;;0.80;;
20565;SDS011;10441;50.884;12.064;2023-03-14T00:54:40;2.10;;;0.70;;
20565;SDS011;10441;50.884;12.064;2023-03-14T00:57:08;1.63;;;0.70;;
20565;SDS011;10441;50.884;12.064;2023-03-14T00:59:35;1.17;;;0.90;;
20565;SDS011;10441;50.884;12.064;2023-03-14T01:02:02;0.93;;;0.80;;
20565;SDS011;10441;50.884;12.064;2023-03-14T01:04:30;3.03;;;0.80;;
20565;SDS011;10441;50.884;12.064;2023-03-14T01:06:57;0.80;;;0.70;;
20565;SDS011;10441;50.884;12.064;2023-03-14T01:09:24;1.60;;;0.67;;
20565;SDS011;10441;50.884;12.064;2023-03-14T01:11:51;1.13;;;0.90;;
20565;SDS011;10441;50.884;12.064;2023-03-14T01:14:19;1.93;;;0.60;;
20565;SDS011;10441;50.884;12.064;2023-03-14T01:16:47;0.80;;;0.80;;
20565;SDS011;10441;50.884;12.064;2023-03-14T01:19:14;1.50;;;0.77;;
20565;SDS011;10441;50.884;12.064;2023-03-14T01:21:42;1.03;;;0.70;;
20565;SDS011;10441;50.884;12.064;2023-03-14T01:24:10;1.17;;;0.80;;
20565;SDS011;10441;50.884;12.064;2023-03-14T01:26:38;1.00;;;0.80;;
20565;SDS011;10441;50.884;12.064;2023-03-14T01:29:05;0.97;;;0.67;;
20565;SDS011;10441;50.884;12.064;2023-03-14T01:31:33;0.70;;;0.60;;
20565;SDS011;10441;50.884;12.064;2023-03-14T01:34:00;0.80;;;0.60;;
20565;SDS011;10441;50.884;12.064;2023-03-14T01:36:27;1.00;;;0.90;;
20565;SDS011;10441;50.884;12.064;2023-03-14T01:38:54;0.83;;;0.63;;
20565;SDS011;10441;50.884;12.064;2023-03-14T01:41:22;0.60;;;0.50;;
20565;SDS011;10441;50.884;12.064;2023-03-14T01:43:51;0.87;;;0.70;;
20565;SDS011;10441;50.884;12.064;2023-03-14T01:46:20;0.93;;;0.80;;
20565;SDS011;10441;50.884;12.064;2023-03-14T01:48:58;0.63;;;0.63;;
20565;SDS011;10441;50.884;12.064;2023-03-14T01:51:30;1.13;;;0.60;;
20565;SDS011;10441;50.884;12.064;2023-03-14T01:54:05;0.87;;;0.53;;
20565;SDS011;10441;50.884;12.064;2023-03-14T01:56:36;3.67;;;0.80;;
20565;SDS011;10441;50.884;12.064;2023-03-14T01:59:05;1.43;;;0.80;;
20565;SDS011;10441;50.884;12.064;2023-03-14T02:01:34;0.73;;;0.57;;
20565;SDS011;10441;50.884;12.064;2023-03-14T02:04:04;1.10;;;0.90;;
20565;SDS011;10441;50.884;12.064;2023-03-14T02:06:34;0.80;;;0.70;;
20565;SDS011;10441;50.884;12.064;2023-03-14T02:09:07;1.83;;;0.63;;
20565;SDS011;10441;50.884;12.064;2023-03-14T02:11:34;2.60;;;0.80;;
20565;SDS011;10441;50.884;12.064;2023-03-14T02:14:02;1.63;;;0.80;;
20565;SDS011;10441;50.884;12.064;2023-03-14T02:16:31;0.97;;;0.60;;
20565;SDS011;10441;50.884;12.064;2023-03-14T02:18:58;0.70;;;0.60;;
20565;SDS011;10441;50.884;12.064;2023-03-14T02:21:29;0.63;;;0.60;;
20565;SDS011;10441;50.884;12.064;2023-03-14T02:24:08;1.90;;;0.60;;
20565;SDS011;10441;50.884;12.064;2023-03-14T02:26:40;0.80;;;0.60;;
20565;SDS011;10441;50.884;12.064;2023-03-14T02:29:13;0.80;;;0.80;;
20565;SDS011;10441;50.884;12.064;2023-03-14T02:31:40;2.30;;;0.80;;
20565;SDS011;10441;50.884;12.064;2023-03-14T02:34:07;1.10;;;0.77;;
20565;SDS011;10441;50.884;12.064;2023-03-14T02:36:35;0.93;;;0.60;;
20565;SDS011;10441;50.884;12.064;2023-03-14T02:39:05;1.03;;;0.83;;
20565;SDS011;10441;50.884;12.064;2023-03-14T02:41:36;1.17;;;0.70;;
20565;SDS011;10441;50.884;12.064;2023-03-14T02:44:04;1.57;;;0.80;;
20565;SDS011;10441;50.884;12.064;2023-03-14T02:46:32;3.27;;;0.83;;
20565;SDS011;10441;50.884;12.064;2023-03-14T02:49:01;1.47;;;0.60;;
20565;SDS011;10441;50.884;12.064;2023-03-14T02:51:30;1.73;;;0.90;;
20565;SDS011;10441;50.884;12.064;2023-03-14T02:53:58;2.07;;;0.60;;
20565;SDS011;10441;50.884;12.064;2023-03-14T02:56:25;1.60;;;0.73;;
20565;SDS011;10441;50.884;12.064;2023-03-14T02:58:53;2.60;;;0.70;;
20565;SDS011;10441;50.884;12.064;2023-03-14T03:01:20;0.53;;;0.53;;
20565;SDS011;10441;50.884;12.064;2023-03-14T03:03:48;2.40;;;0.80;;
20565;SDS011;10441;50.884;12.064;2023-03-14T03:06:17;1.00;;;0.70;;
20565;SDS011;10441;50.884;12.064;2023-03-14T03:08:44;1.73;;;0.60;;
20565;SDS011;10441;50.884;12.064;2023-03-14T03:11:11;1.63;;;0.80;;
20565;SDS011;10441;50.884;12.064;2023-03-14T03:13:38;1.70;;;0.83;;
20565;SDS011;10441;50.884;12.064;2023-03-14T03:16:06;2.27;;;0.70;;
20565;SDS011;10441;50.884;12.064;2023-03-14T03:18:33;2.07;;;0.80;;
20565;SDS011;10441;50.884;12.064;2023-03-14T03:21:02;1.20;;;0.60;;
20565;SDS011;10441;50.884;12.064;2023-03-14T03:23:30;1.67;;;0.90;;
20565;SDS011;10441;50.884;12.064;2023-03-14T03:25:58;3.60;;;0.93;;
20565;SDS011;10441;50.884;12.064;2023-03-14T03:28:25;3.30;;;1.00;;
20565;SDS011;10441;50.884;12.064;2023-03-14T03:30:52;2.60;;;0.87;;
20565;SDS011;10441;50.884;12.064;2023-03-14T03:33:19;1.90;;;0.80;;
20565;SDS011;10441;50.884;12.064;2023-03-14T03:35:48;2.80;;;0.80;;
20565;SDS011;10441;50.884;12.064;2023-03-14T03:38:17;1.67;;;0.90;;
20565;SDS011;10441;50.884;12.064;2023-03-14T03:40:45;1.07;;;0.67;;
20565;SDS011;10441;50.884;12.064;2023-03-14T03:43:12;3.77;;;1.00;;
20565;SDS011;10441;50.884;12.064;2023-03-14T03:45:39;3.17;;;0.70;;
20565;SDS011;10441;50.884;12.064;2023-03-14T03:48:06;2.83;;;1.00;;
20565;SDS011;10441;50.884;12.064;2023-03-14T03:50:34;5.90;;;1.10;;
20565;SDS011;10441;50.884;12.064;2023-03-14T03:53:01;3.30;;;1.00;;
20565;SDS011;10441;50.884;12.064;2023-03-14T03:55:30;2.03;;;0.90;;
20565;SDS011;10441;50.884;12.064;2023-03-14T03:58:00;2.27;;;1.00;;
20565;SDS011;10441;50.884;12.064;2023-03-14T04:00:27;2.77;;;0.90;;
20565;SDS011;10441;50.884;12.064;2023-03-14T04:02:54;2.53;;;0.80;;
20565;SDS011;10441;50.884;12.064;2023-03-14T04:05:21;3.23;;;1.07;;
20565;SDS011;10441;50.884;12.064;2023-03-14T04:07:48;4.77;;;0.87;;
20565;SDS011;10441;50.884;12.064;2023-03-14T04:10:15;5.27;;;1.30;;
20565;SDS011;10441;50.884;12.064;2023-03-14T04:12:44;2.63;;;1.00;;
20565;SDS011;10441;50.884;12.064;2023-03-14T04:15:11;1.57;;;1.00;;
20565;SDS011;10441;50.884;12.064;2023-03-14T04:17:39;3.47;;;0.90;;
20565;SDS011;10441;50.884;12.064;2023-03-14T04:20:08;1.57;;;0.90;;
20565;SDS011;10441;50.884;12.064;2023-03-14T04:22:37;3.77;;;1.10;;
20565;SDS011;10441;50.884;12.064;2023-03-14T04:25:05;9.53;;;1.73;;
20565;SDS011;10441;50.884;12.064;2023-03-14T04:27:33;3.40;;;1.30;;
20565;SDS011;10441;50.884;12.064;2023-03-14T04:30:02;4.13;;;1.10;;
20565;SDS011;10441;50.884;12.064;2023-03-14T04:32:30;5.27;;;1.50;;
20565;SDS011;10441;50.884;12.064;2023-03-14T04:34:58;6.37;;;1.20;;
20565;SDS011;10441;50.884;12.064;2023-03-14T04:37:25;3.27;;;1.20;;
20565;SDS011;10441;50.884;12.064;2023-03-14T04:39:55;6.43;;;1.13;;
20565;SDS011;10441;50.884;12.064;2023-03-14T04:42:22;4.43;;;1.40;;
20565;SDS011;10441;50.884;12.064;2023-03-14T04:44:51;2.73;;;1.00;;
20565;SDS011;10441;50.884;12.064;2023-03-14T04:47:19;3.37;;;1.37;;
20565;SDS011;10441;50.884;12.064;2023-03-14T04:49:47;6.17;;;1.37;;
20565;SDS011;10441;50.884;12.064;2023-03-14T04:52:14;3.67;;;1.30;;
20565;SDS011;10441;50.884;12.064;2023-03-14T04:54:41;5.93;;;1.33;;
20565;SDS011;10441;50.884;12.064;2023-03-14T04:57:11;1.90;;;1.00;;
20565;SDS011;10441;50.884;12.064;2023-03-14T04:59:38;5.10;;;1.20;;
20565;SDS011;10441;50.884;12.064;2023-03-14T05:02:05;2.03;;;0.97;;
20565;SDS011;10441;50.884;12.064;2023-03-14T05:04:34;2.10;;;0.90;;
20565;SDS011;10441;50.884;12.064;2023-03-14T05:07:02;3.97;;;1.23;;
20565;SDS011;10441;50.884;12.064;2023-03-14T05:09:30;3.73;;;1.10;;
20565;SDS011;10441;50.884;12.064;2023-03-14T05:11:58;2.77;;;0.97;;
20565;SDS011;10441;50.884;12.064;2023-03-14T05:14:26;2.87;;;1.00;;
20565;SDS011;10441;50.884;12.064;2023-03-14T05:16:55;2.10;;;1.00;;
20565;SDS011;10441;50.884;12.064;2023-03-14T05:19:26;2.97;;;0.93;;
20565;SDS011;10441;50.884;12.064;2023-03-14T05:21:57;4.20;;;1.17;;
20565;SDS011;10441;50.884;12.064;2023-03-14T05:24:28;5.80;;;1.20;;
20565;SDS011;10441;50.884;12.064;2023-03-14T05:26:59;3.33;;;1.30;;
20565;SDS011;10441;50.884;12.064;2023-03-14T05:29:31;5.10;;;1.27;;
20565;SDS011;10441;50.884;12.064;2023-03-14T05:31:59;3.57;;;1.30;;
20565;SDS011;10441;50.884;12.064;2023-03-14T05:34:27;6.53;;;1.10;;
20565;SDS011;10441;50.884;12.064;2023-03-14T05:36:56;3.43;;;1.10;;
20565;SDS011;10441;50.884;12.064;2023-03-14T05:39:26;2.43;;;0.77;;
20565;SDS011;10441;50.884;12.064;2023-03-14T05:41:54;4.43;;;1.10;;
20565;SDS011;10441;50.884;12.064;2023-03-14T05:44:23;3.63;;;1.07;;
20565;SDS011;10441;50.884;12.064;2023-03-14T05:46:52;2.50;;;0.83;;
20565;SDS011;10441;50.884;12.064;2023-03-14T05:49:20;5.57;;;1.23;;
20565;SDS011;10441;50.884;12.064;2023-03-14T05:51:48;3.17;;;0.90;;
20565;SDS011;10441;50.884;12.064;2023-03-14T05:54:18;4.63;;;1.33;;
20565;SDS011;10441;50.884;12.064;2023-03-14T05:56:46;4.13;;;1.20;;
20565;SDS011;10441;50.884;12.064;2023-03-14T05:59:14;3.07;;;1.00;;
20565;SDS011;10441;50.884;12.064;2023-03-14T06:01:43;1.80;;;0.83;;
20565;SDS011;10441;50.884;12.064;2023-03-14T06:04:10;5.20;;;1.10;;
20565;SDS011;10441;50.884;12.064;2023-03-14T06:06:38;3.60;;;0.90;;
20565;SDS011;10441;50.884;12.064;2023-03-14T06:09:05;1.87;;;1.13;;
20565;SDS011;10441;50.884;12.064;2023-03-14T06:11:34;2.00;;;0.80;;
20565;SDS011;10441;50.884;12.064;2023-03-14T06:14:03;3.27;;;0.90;;
20565;SDS011;10441;50.884;12.064;2023-03-14T06:16:31;3.60;;;1.43;;
20565;SDS011;10441;50.884;12.064;2023-03-14T06:18:59;2.37;;;1.00;;
20565;SDS011;10441;50.884;12.064;2023-03-14T06:21:26;4.67;;;1.00;;
20565;SDS011;10441;50.884;12.064;2023-03-14T06:23:55;3.07;;;1.07;;
20565;SDS011;10441;50.884;12.064;2023-03-14T06:26:22;3.10;;;1.20;;
20565;SDS011;10441;50.884;12.064;2023-03-14T06:28:51;3.47;;;1.20;;
20565;SDS011;10441;50.884;12.064;2023-03-14T06:31:22;2.90;;;0.90;;
20565;SDS011;10441;50.884;12.064;2023-03-14T06:33:55;4.23;;;1.20;;
20565;SDS011;10441;50.884;12.064;2023-03-14T06:36:25;1.80;;;0.77;;
20565;SDS011;10441;50.884;12.064;2023-03-14T06:38:58;1.37;;;0.70;;
20565;SDS011;10441;50.884;12.064;2023-03-14T06:41:26;4.53;;;1.00;;
20565;SDS011;10441;50.884;12.064;2023-03-14T06:43:55;3.00;;;0.73;;
20565;SDS011;10441;50.884;12.064;2023-03-14T06:46:25;1.90;;;0.90;;
20565;SDS011;10441;50.884;12.064;2023-03-14T06:48:54;1.20;;;0.70;;
20565;SDS011;10441;50.884;12.064;2023-03-14T06:51:23;2.00;;;0.90;;
20565;SDS011;10441;50.884;12.064;2023-03-14T06:53:52;2.13;;;0.77;;
20565;SDS011;10441;50.884;12.064;2023-03-14T06:56:19;2.57;;;0.80;;
20565;SDS011;10441;50.884;12.064;2023-03-14T06:58:48;1.73;;;0.80;;
20565;SDS011;10441;50.884;12.064;2023-03-14T07:01:22;1.77;;;1.13;;
20565;SDS011;10441;50.884;12.064;2023-03-14T07:03:57;3.00;;;0.90;;
20565;SDS011;10441;50.884;12.064;2023-03-14T07:06:31;2.13;;;1.00;;
20565;SDS011;10441;50.884;12.064;2023-03-14T07:08:59;1.73;;;0.70;;
20565;SDS011;10441;50.884;12.064;2023-03-14T07:11:27;1.37;;;0.90;;
20565;SDS011;10441;50.884;12.064;2023-03-14T07:13:54;1.57;;;0.90;;
20565;SDS011;10441;50.884;12.064;2023-03-14T07:16:27;1.97;;;0.80;;
20565;SDS011;10441;50.884;12.064;2023-03-14T07:18:58;2.90;;;0.63;;
20565;SDS011;10441;50.884;12.064;2023-03-14T07:21:25;3.60;;;1.10;;
20565;SDS011;10441;50.884;12.064;2023-03-14T07:23:52;2.13;;;0.67;;
20565;SDS011;10441;50.884;12.064;2023-03-14T07:26:20;1.50;;;0.70;;
20565;SDS011;10441;50.884;12.064;2023-03-14T07:28:47;2.60;;;1.03;;
20565;SDS011;10441;50.884;12.064;2023-03-14T07:31:14;4.93;;;1.13;;
20565;SDS011;10441;50.884;12.064;2023-03-14T07:33:43;2.37;;;1.10;;
20565;SDS011;10441;50.884;12.064;2023-03-14T07:36:10;2.10;;;0.97;;
20565;SDS011;10441;50.884;12.064;2023-03-14T07:38:38;4.03;;;1.00;;
20565;SDS011;10441;50.884;12.064;2023-03-14T07:41:06;1.67;;;0.70;;
20565;SDS011;10441;50.884;12.064;2023-03-14T07:43:33;3.37;;;1.00;;
20565;SDS011;10441;50.884;12.064;2023-03-14T07:46:00;3.67;;;0.80;;
20565;SDS011;10441;50.884;12.064;2023-03-14T07:48:28;1.40;;;0.80;;
20565;SDS011;10441;50.884;12.064;2023-03-14T07:50:56;1.60;;;0.80;;
20565;SDS011;10441;50.884;12.064;2023-03-14T07:53:24;3.73;;;1.10;;
20565;SDS011;10441;50.884;12.064;2023-03-14T07:55:52;3.27;;;0.83;;
20565;SDS011;10441;50.884;12.064;2023-03-14T07:58:20;2.43;;;0.90;;
20565;SDS011;10441;50.884;12.064;2023-03-14T08:00:48;4.37;;;1.17;;
20565;SDS011;10441;50.884;12.064;2023-03-14T08:03:16;1.80;;;0.77;;
20565;SDS011;10441;50.884;12.064;2023-03-14T08:05:46;2.00;;;0.90;;
20565;SDS011;10441;50.884;12.064;2023-03-14T08:08:16;3.17;;;0.80;;
20565;SDS011;10441;50.884;12.064;2023-03-14T08:10:44;2.00;;;0.97;;
20565;SDS011;10441;50.884;12.064;2023-03-14T08:13:11;3.17;;;1.90;;
20565;SDS011;10441;50.884;12.064;2023-03-14T08:15:38;1.07;;;0.70;;
20565;SDS011;10441;50.884;12.064;2023-03-14T08:18:06;2.87;;;0.97;;
20565;SDS011;10441;50.884;12.064;2023-03-14T08:20:33;1.50;;;0.90;;
20565;SDS011;10441;50.884;12.064;2023-03-14T08:23:02;1.50;;;0.70;;
20565;SDS011;10441;50.884;12.064;2023-03-14T08:25:30;1.97;;;0.80;;
20565;SDS011;10441;50.884;12.064;2023-03-14T08:27:58;4.10;;;0.80;;
20565;SDS011;10441;50.884;12.064;2023-03-14T08:30:25;1.33;;;0.53;;
20565;SDS011;10441;50.884;12.064;2023-03-14T08:32:52;3.27;;;0.87;;
20565;SDS011;10441;50.884;12.064;2023-03-14T08:35:20;2.43;;;0.70;;
20565;SDS011;10441;50.884;12.064;2023-03-14T08:37:47;2.20;;;0.90;;
20565;SDS011;10441;50.884;12.064;2023-03-14T08:40:14;2.07;;;0.97;;
20565;SDS011;10441;50.884;12.064;2023-03-14T08:42:43;1.20;;;0.63;;
20565;SDS011;10441;50.884;12.064;2023-03-14T08:45:13;2.77;;;0.77;;
20565;SDS011;10441;50.884;12.064;2023-03-14T08:47:44;2.07;;;0.90;;
20565;SDS011;10441;50.884;12.064;2023-03-14T08:50:12;1.90;;;0.80;;
20565;SDS011;10441;50.884;12.064;2023-03-14T08:52:39;1.93;;;0.70;;
20565;SDS011;10441;50.884;12.064;2023-03-14T08:55:07;1.60;;;0.73;;
20565;SDS011;10441;50.884;12.064;2023-03-14T08:57:34;1.03;;;0.60;;
20565;SDS011;10441;50.884;12.064;2023-03-14T09:00:03;1.10;;;0.70;;
20565;SDS011;10441;50.884;12.064;2023-03-14T09:02:37;2.30;;;0.90;;
20565;SDS011;10441;50.884;12.064;2023-03-14T09:05:04;2.67;;;0.73;;
20565;SDS011;10441;50.884;12.064;2023-03-14T09:07:32;2.13;;;0.80;;
20565;SDS011;10441;50.884;12.064;2023-03-14T09:09:59;3.47;;;1.37;;
20565;SDS011;10441;50.884;12.064;2023-03-14T09:12:27;2.30;;;1.00;;
20565;SDS011;10441;50.884;12.064;2023-03-14T09:14:54;2.33;;;1.20;;
20565;SDS011;10441;50.884;12.064;2023-03-14T09:17:22;3.03;;;0.80;;
20565;SDS011;10441;50.884;12.064;2023-03-14T09:19:49;0.90;;;0.60;;
20565;SDS011;10441;50.884;12.064;2023-03-14T09:22:17;2.53;;;0.70;;
20565;SDS011;10441;50.884;12.064;2023-03-14T09:24:44;1.87;;;0.93;;
20565;SDS011;10441;50.884;12.064;2023-03-14T09:27:11;3.63;;;0.80;;
20565;SDS011;10441;50.884;12.064;2023-03-14T09:29:39;2.50;;;0.93;;
20565;SDS011;10441;50.884;12.064;2023-03-14T09:32:07;3.77;;;1.03;;
20565;SDS011;10441;50.884;12.064;2023-03-14T09:34:36;2.73;;;1.07;;
20565;SDS011;10441;50.884;12.064;2023-03-14T09:37:03;1.83;;;0.80;;
20565;SDS011;10441;50.884;12.064;2023-03-14T09:39:30;5.03;;;1.00;;
20565;SDS011;10441;50.884;12.064;2023-03-14T09:41:58;2.20;;;0.80;;
20565;SDS011;10441;50.884;12.064;2023-03-14T09:44:28;2.27;;;0.90;;
20565;SDS011;10441;50.884;12.064;2023-03-14T09:47:00;3.13;;;0.90;;
20565;SDS011;10441;50.884;12.064;2023-03-14T09:49:31;1.67;;;0.87;;
20565;SDS011;10441;50.884;12.064;2023-03-14T09:52:01;2.20;;;0.83;;
20565;SDS011;10441;50.884;12.064;2023-03-14T09:54:34;1.43;;;0.57;;
20565;SDS011;10441;50.884;12.064;2023-03-14T09:57:04;1.20;;;0.73;;
20565;SDS011;10441;50.884;12.064;2023-03-14T10:04:40;1.60;;;0.63;;
20565;SDS011;10441;50.884;12.064;2023-03-14T10:07:13;0.80;;;0.60;;
20565;SDS011;10441;50.884;12.064;2023-03-14T10:09:44;0.77;;;0.60;;
20565;SDS011;10441;50.884;12.064;2023-03-14T10:12:13;1.60;;;0.70;;
20565;SDS011;10441;50.884;12.064;2023-03-14T10:14:45;1.23;;;0.60;;
20565;SDS011;10441;50.884;12.064;2023-03-14T10:17:14;0.63;;;0.60;;
20565;SDS011;10441;50.884;12.064;2023-03-14T10:19:52;4.47;;;0.70;;
20565;SDS011;10441;50.884;12.064;2023-03-14T10:22:23;1.47;;;0.60;;
20565;SDS011;10441;50.884;12.064;2023-03-14T10:24:54;2.47;;;0.80;;
20565;SDS011;10441;50.884;12.064;2023-03-14T10:27:27;1.27;;;0.70;;
20565;SDS011;10441;50.884;12.064;2023-03-14T10:29:58;2.97;;;0.90;;
20565;SDS011;10441;50.884;12.064;2023-03-14T10:32:32;0.90;;;0.60;;
20565;SDS011;10441;50.884;12.064;2023-03-14T10:35:07;1.43;;;0.70;;
20565;SDS011;10441;50.884;12.064;2023-03-14T10:37:50;1.57;;;0.60;;
20565;SDS011;10441;50.884;12.064;2023-03-14T10:40:20;0.90;;;0.60;;
20565;SDS011;10441;50.884;12.064;2023-03-14T10:42:53;0.83;;;0.50;;
20565;SDS011;10441;50.884;12.064;2023-03-14T10:45:31;1.13;;;0.60;;
20565;SDS011;10441;50.884;12.064;2023-03-14T10:48:05;1.60;;;0.70;;
20565;SDS011;10441;50.884;12.064;2023-03-14T10:50:47;0.97;;;0.60;;
20565;SDS011;10441;50.884;12.064;2023-03-14T10:53:20;1.33;;;0.57;;
20565;SDS011;10441;50.884;12.064;2023-03-14T10:55:48;1.67;;;0.50;;
20565;SDS011;10441;50.884;12.064;2023-03-14T10:58:20;1.23;;;0.70;;
20565;SDS011;10441;50.884;12.064;2023-03-14T11:00:50;1.83;;;0.50;;
20565;SDS011;10441;50.884;12.064;2023-03-14T11:03:23;1.00;;;0.60;;
20565;SDS011;10441;50.884;12.064;2023-03-14T11:05:53;0.40;;;0.40;;
20565;SDS011;10441;50.884;12.064;2023-03-14T11:08:27;1.00;;;0.50;;
20565;SDS011;10441;50.884;12.064;2023-03-14T11:11:03;2.17;;;0.50;;
20565;SDS011;10441;50.884;12.064;2023-03-14T11:13:37;0.43;;;0.40;;
20565;SDS011;10441;50.884;12.064;2023-03-14T11:16:14;1.70;;;0.60;;
20565;SDS011;10441;50.884;12.064;2023-03-14T11:22:17;1.23;;;0.50;;
20565;SDS011;10441;50.884;12.064;2023-03-14T11:25:20;0.97;;;0.50;;
20565;SDS011;10441;50.884;12.064;2023-03-14T11:27:55;0.97;;;0.60;;
20565;SDS011;10441;50.884;12.064;2023-03-14T11:30:34;0.50;;;0.50;;
20565;SDS011;10441;50.884;12.064;2023-03-14T11:33:08;2.23;;;0.70;;
20565;SDS011;10441;50.884;12.064;2023-03-14T11:35:42;1.23;;;0.50;;
20565;SDS011;10441;50.884;12.064;2023-03-14T11:38:15;2.33;;;0.60;;
20565;SDS011;10441;50.884;12.064;2023-03-14T11:40:52;0.90;;;0.40;;
20565;SDS011;10441;50.884;12.064;2023-03-14T11:43:24;1.03;;;0.47;;
20565;SDS011;10441;50.884;12.064;2023-03-14T11:45:57;0.50;;;0.40;;
20565;SDS011;10441;50.884;12.064;2023-03-14T11:48:33;1.67;;;0.40;;
20565;SDS011;10441;50.884;12.064;2023-03-14T11:51:05;1.70;;;0.50;;
20565;SDS011;10441;50.884;12.064;2023-03-14T11:53:39;2.13;;;0.70;;
20565;SDS011;10441;50.884;12.064;2023-03-14T11:56:16;0.80;;;0.60;;
20565;SDS011;10441;50.884;12.064;2023-03-14T11:58:51;2.47;;;0.80;;
20565;SDS011;10441;50.884;12.064;2023-03-14T12:01:22;0.80;;;0.50;;
20565;SDS011;10441;50.884;12.064;2023-03-14T12:03:56;2.30;;;0.60;;
20565;SDS011;10441;50.884;12.064;2023-03-14T12:06:31;1.30;;;0.60;;
20565;SDS011;10441;50.884;12.064;2023-03-14T12:09:04;1.00;;;0.50;;
20565;SDS011;10441;50.884;12.064;2023-03-14T12:11:35;1.43;;;0.53;;
20565;SDS011;10441;50.884;12.064;2023-03-14T12:14:16;1.30;;;0.50;;
20565;SDS011;10441;50.884;12.064;2023-03-14T12:16:49;1.03;;;0.53;;
20565;SDS011;10441;50.884;12.064;2023-03-14T12:19:32;3.23;;;0.50;;
20565;SDS011;10441;50.884;12.064;2023-03-14T12:25:00;0.60;;;0.60;;
20565;SDS011;10441;50.884;12.064;2023-03-14T12:28:04;0.40;;;0.33;;
20565;SDS011;10441;50.884;12.064;2023-03-14T12:30:42;1.13;;;0.60;;
20565;SDS011;10441;50.884;12.064;2023-03-14T12:35:59;1.80;;;0.70;;
20565;SDS011;10441;50.884;12.064;2023-03-14T12:38:43;1.37;;;0.70;;
20565;SDS011;10441;50.884;12.064;2023-03-14T12:41:20;0.87;;;0.40;;
20565;SDS011;10441;50.884;12.064;2023-03-14T12:43:51;0.40;;;0.40;;
20565;SDS011;10441;50.884;12.064;2023-03-14T12:46:22;1.47;;;0.73;;
20565;SDS011;10441;50.884;12.064;2023-03-14T12:48:54;1.43;;;0.67;;
20565;SDS011;10441;50.884;12.064;2023-03-14T12:51:28;1.50;;;0.57;;
20565;SDS011;10441;50.884;12.064;2023-03-14T12:54:06;0.70;;;0.60;;
20565;SDS011;10441;50.884;12.064;2023-03-14T12:56:54;0.97;;;0.50;;
20565;SDS011;10441;50.884;12.064;2023-03-14T12:59:33;0.90;;;0.57;;
20565;SDS011;10441;50.884;12.064;2023-03-14T13:02:02;0.70;;;0.70;;
20565;SDS011;10441;50.884;12.064;2023-03-14T13:04:45;0.53;;;0.30;;
20565;SDS011;10441;50.884;12.064;2023-03-14T13:07:28;1.13;;;0.40;;
20565;SDS011;10441;50.884;12.064;2023-03-14T13:12:51;0.97;;;0.60;;
20565;SDS011;10441;50.884;12.064;2023-03-14T13:15:27;1.37;;;0.90;;
20565;SDS011;10441;50.884;12.064;2023-03-14T13:17:59;0.90;;;0.50;;
20565;SDS011;10441;50.884;12.064;2023-03-14T13:20:30;0.50;;;0.40;;
20565;SDS011;10441;50.884;12.064;2023-03-14T13:23:00;0.70;;;0.30;;
20565;SDS011;10441;50.884;12.064;2023-03-14T13:25:31;1.40;;;0.50;;
20565;SDS011;10441;50.884;12.064;2023-03-14T13:28:00;2.17;;;0.60;;
20565;SDS011;10441;50.884;12.064;2023-03-14T13:30:35;2.87;;;1.50;;
20565;SDS011;10441;50.884;12.064;2023-03-14T13:33:05;1.93;;;1.23;;
20565;SDS011;10441;50.884;12.064;2023-03-14T13:35:38;0.83;;;0.50;;
20565;SDS011;10441;50.884;12.064;2023-03-14T13:38:13;0.83;;;0.67;;
20565;SDS011;10441;50.884;12.064;2023-03-14T13:40:43;1.20;;;0.63;;
20565;SDS011;10441;50.884;12.064;2023-03-14T13:43:14;1.33;;;0.50;;
20565;SDS011;10441;50.884;12.064;2023-03-14T13:45:54;0.93;;;0.40;;
20565;SDS011;10441;50.884;12.064;2023-03-14T13:48:27;0.40;;;0.40;;
20565;SDS011;10441;50.884;12.064;2023-03-14T13:50:56;0.70;;;0.30;;
20565;SDS011;10441;50.884;12.064;2023-03-14T13:53:27;0.40;;;0.40;;
20565;SDS011;10441;50.884;12.064;2023-03-14T13:55:55;1.27;;;0.50;;
20565;SDS011;10441;50.884;12.064;2023-03-14T13:58:23;1.60;;;0.60;;
20565;SDS011;10441;50.884;12.064;2023-03-14T14:00:58;1.07;;;0.50;;
20565;SDS011;10441;50.884;12.064;2023-03-14T14:03:30;1.30;;;0.40;;
20565;SDS011;10441;50.884;12.064;2023-03-14T14:05:59;1.60;;;0.63;;
20565;SDS011;10441;50.884;12.064;2023-03-14T14:08:29;1.60;;;0.50;;
20565;SDS011;10441;50.884;12.064;2023-03-14T14:10:58;1.53;;;0.70;;
20565;SDS011;10441;50.884;12.064;2023-03-14T14:13:27;1.70;;;0.50;;
20565;SDS011;10441;50.884;12.064;2023-03-14T14:15:59;0.97;;;0.50;;
20565;SDS011;10441;50.884;12.064;2023-03-14T14:18:28;1.77;;;0.60;;
20565;SDS011;10441;50.884;12.064;2023-03-14T14:20:58;0.40;;;0.40;;
20565;SDS011;10441;50.884;12.064;2023-03-14T14:23:26;1.27;;;0.40;;
20565;SDS011;10441;50.884;12.064;2023-03-14T14:25:58;1.00;;;0.60;;
20565;SDS011;10441;50.884;12.064;2023-03-14T14:28:28;0.67;;;0.60;;
20565;SDS011;10441;50.884;12.064;2023-03-14T14:31:01;1.10;;;0.80;;
20565;SDS011;10441;50.884;12.064;2023-03-14T14:33:37;0.50;;;0.50;;
20565;SDS011;10441;50.884;12.064;2023-03-14T14:36:12;0.60;;;0.50;;
20565;SDS011;10441;50.884;12.064;2023-03-14T14:38:48;0.30;;;0.30;;
20565;SDS011;10441;50.884;12.064;2023-03-14T14:41:17;1.60;;;0.60;;
20565;SDS011;10441;50.884;12.064;2023-03-14T14:43:44;0.40;;;0.40;;
20565;SDS011;10441;50.884;12.064;2023-03-14T14:46:15;0.30;;;0.30;;
20565;SDS011;10441;50.884;12.064;2023-03-14T14:48:45;0.20;;;0.20;;
20565;SDS011;10441;50.884;12.064;2023-03-14T14:51:26;0.63;;;0.50;;
20565;SDS011;10441;50.884;12.064;2023-03-14T14:54:18;0.60;;;0.60;;
20565;SDS011;10441;50.884;12.064;2023-03-14T14:57:01;0.30;;;0.30;;
20565;SDS011;10441;50.884;12.064;2023-03-14T14:59:31;0.97;;;0.50;;
20565;SDS011;10441;50.884;12.064;2023-03-14T15:02:27;0.40;;;0.40;;
20565;SDS011;10441;50.884;12.064;2023-03-14T15:04:59;0.80;;;0.60;;
20565;SDS011;10441;50.884;12.064;2023-03-14T15:07:28;0.70;;;0.70;;